createdAt,value
2018-09-16T00:01:00.622Z,65.13
2018-09-16T00:02:04.826Z,64.63
2018-09-16T00:03:09.072Z,65.16
2018-09-16T00:04:13.422Z,64.55
2018-09-16T00:05:17.652Z,64.51
2018-09-16T00:06:21.809Z,65.30
2018-09-16T00:07:26.262Z,65.17
2018-09-16T00:08:30.502Z,65.09
2018-09-16T00:09:34.674Z,65.07
2018-09-16T00:10:38.830Z,65.36
2018-09-16T00:11:43.011Z,64.68
2018-09-16T00:12:47.187Z,65.24
2018-09-16T00:13:51.345Z,64.68
2018-09-16T00:14:55.535Z,64.96
2018-09-16T00:15:59.697Z,65.35
2018-09-16T00:17:03.879Z,65.34
2018-09-16T00:18:08.095Z,65.21
2018-09-16T00:19:12.275Z,65.02
2018-09-16T00:20:16.637Z,65.33
2018-09-16T00:21:20.825Z,65.39
2018-09-16T00:22:25.167Z,65.27
2018-09-16T00:23:29.498Z,64.86
2018-09-16T00:24:33.703Z,65.42
2018-09-16T00:25:37.871Z,64.89
2018-09-16T00:26:42.278Z,65.27
2018-09-16T00:27:46.474Z,64.90
2018-09-16T00:28:50.678Z,65.55
2018-09-16T00:29:54.846Z,65.40
2018-09-16T00:30:59.091Z,65.24
2018-09-16T00:32:08.368Z,65.13
2018-09-16T00:33:13.533Z,64.66
2018-09-16T00:34:17.667Z,64.98
2018-09-16T00:35:21.944Z,65.13
2018-09-16T00:36:26.295Z,65.01
2018-09-16T00:37:30.456Z,64.81
2018-09-16T00:38:34.786Z,64.83
2018-09-16T00:39:38.946Z,65.38
2018-09-16T00:40:43.204Z,65.40
2018-09-16T00:41:47.431Z,65.39
2018-09-16T00:42:51.688Z,65.55
2018-09-16T00:43:55.846Z,64.68
2018-09-16T00:45:00.046Z,64.74
2018-09-16T00:46:04.347Z,64.80
2018-09-16T00:47:08.547Z,65.51
2018-09-16T00:48:12.714Z,65.01
2018-09-16T00:49:16.853Z,65.32
2018-09-16T00:50:21.022Z,64.76
2018-09-16T00:51:25.226Z,64.59
2018-09-16T00:52:29.378Z,65.27
2018-09-16T00:53:33.507Z,65.45
2018-09-16T00:54:37.658Z,65.06
2018-09-16T00:55:41.905Z,65.21
2018-09-16T00:56:46.048Z,65.32
2018-09-16T00:57:50.252Z,64.61
2018-09-16T00:58:54.439Z,64.94
2018-09-16T00:59:58.691Z,64.95
2018-09-16T01:01:02.871Z,64.99
2018-09-16T01:02:07.003Z,65.04
2018-09-16T01:03:11.223Z,64.93
2018-09-16T01:04:15.382Z,64.99
2018-09-16T01:05:19.519Z,64.98
2018-09-16T01:06:28.918Z,65.05
2018-09-16T01:07:33.062Z,64.31
2018-09-16T01:08:37.282Z,64.25
2018-09-16T01:09:41.430Z,64.42
2018-09-16T01:10:45.629Z,64.96
2018-09-16T01:11:49.833Z,64.69
2018-09-16T01:12:54.061Z,64.54
2018-09-16T01:13:58.359Z,64.99
2018-09-16T01:15:02.478Z,64.58
2018-09-16T01:16:06.864Z,64.18
2018-09-16T01:17:11.270Z,64.81
2018-09-16T01:18:15.616Z,65.01
2018-09-16T01:19:19.986Z,64.18
2018-09-16T01:20:24.131Z,64.24
2018-09-16T01:21:28.380Z,64.28
2018-09-16T01:22:32.704Z,64.30
2018-09-16T01:23:36.947Z,65.00
2018-09-16T01:24:41.146Z,64.87
2018-09-16T01:25:45.318Z,64.66
2018-09-16T01:26:49.424Z,64.98
2018-09-16T01:27:53.966Z,64.88
2018-09-16T01:28:58.135Z,64.51
2018-09-16T01:30:02.442Z,64.87
2018-09-16T01:31:06.610Z,64.39
2018-09-16T01:32:10.868Z,64.43
2018-09-16T01:33:15.041Z,64.32
2018-09-16T01:34:19.203Z,64.32
2018-09-16T01:35:23.384Z,64.09
2018-09-16T01:36:27.932Z,64.63
2018-09-16T01:37:37.348Z,64.98
2018-09-16T01:38:46.878Z,64.80
2018-09-16T01:39:51.025Z,64.82
2018-09-16T01:40:55.644Z,64.84
2018-09-16T01:41:59.810Z,64.60
2018-09-16T01:43:04.009Z,64.72
2018-09-16T01:44:08.193Z,64.26
2018-09-16T01:45:12.389Z,64.75
2018-09-16T01:46:16.598Z,64.14
2018-09-16T01:47:20.778Z,64.55
2018-09-16T01:48:24.922Z,64.05
2018-09-16T01:49:29.096Z,64.69
2018-09-16T01:50:33.301Z,64.68
2018-09-16T01:51:37.454Z,64.21
2018-09-16T01:52:41.711Z,64.47
2018-09-16T01:53:45.914Z,64.07
2018-09-16T01:54:50.122Z,64.46
2018-09-16T01:55:54.266Z,64.55
2018-09-16T01:56:58.491Z,64.62
2018-09-16T01:58:02.720Z,64.63
2018-09-16T01:59:07.479Z,64.08
2018-09-16T02:00:11.718Z,64.54
2018-09-16T02:01:16.001Z,64.33
2018-09-16T02:02:20.285Z,64.08
2018-09-16T02:03:24.456Z,64.06
2018-09-16T02:04:28.872Z,64.83
2018-09-16T02:05:38.222Z,64.13
2018-09-16T02:06:42.417Z,64.04
2018-09-16T02:07:46.728Z,64.17
2018-09-16T02:08:50.873Z,64.79
2018-09-16T02:09:55.138Z,64.40
2018-09-16T02:10:59.766Z,64.45
2018-09-16T02:12:03.974Z,64.45
2018-09-16T02:13:08.265Z,64.60
2018-09-16T02:14:12.471Z,64.86
2018-09-16T02:15:17.061Z,64.73
2018-09-16T02:16:21.241Z,64.21
2018-09-16T02:17:25.411Z,64.78
2018-09-16T02:18:29.643Z,64.25
2018-09-16T02:19:33.831Z,64.80
2018-09-16T02:20:38.027Z,64.17
2018-09-16T02:21:42.202Z,64.20
2018-09-16T02:22:46.418Z,64.74
2018-09-16T02:23:50.775Z,64.22
2018-09-16T02:24:54.919Z,64.50
2018-09-16T02:25:59.138Z,64.65
2018-09-16T02:27:03.290Z,64.55
2018-09-16T02:28:07.452Z,64.08
2018-09-16T02:29:11.686Z,64.65
2018-09-16T02:30:15.875Z,64.84
2018-09-16T02:31:20.068Z,64.85
2018-09-16T02:32:24.222Z,64.16
2018-09-16T02:33:28.407Z,64.84
2018-09-16T02:34:32.718Z,64.92
2018-09-16T02:35:36.879Z,64.81
2018-09-16T02:36:41.455Z,64.24
2018-09-16T02:37:45.651Z,64.67
2018-09-16T02:38:49.819Z,64.76
2018-09-16T02:39:54.095Z,64.72
2018-09-16T02:40:58.266Z,65.10
2018-09-16T02:42:02.416Z,65.01
2018-09-16T02:43:06.561Z,65.10
2018-09-16T02:44:10.725Z,64.63
2018-09-16T02:45:15.091Z,65.21
2018-09-16T02:46:19.343Z,65.27
2018-09-16T02:47:23.746Z,65.20
2018-09-16T02:48:27.955Z,64.56
2018-09-16T02:49:32.110Z,64.74
2018-09-16T02:50:36.329Z,65.47
2018-09-16T02:51:40.715Z,64.75
2018-09-16T02:52:45.036Z,64.82
2018-09-16T02:53:49.289Z,65.38
2018-09-16T02:54:53.461Z,64.99
2018-09-16T02:55:57.697Z,65.24
2018-09-16T02:57:02.212Z,65.05
2018-09-16T02:58:06.334Z,65.13
2018-09-16T02:59:10.482Z,64.90
2018-09-16T03:00:14.833Z,65.14
2018-09-16T03:01:19.162Z,65.69
2018-09-16T03:02:23.337Z,64.70
2018-09-16T03:03:27.501Z,65.46
2018-09-16T03:04:31.749Z,65.45
2018-09-16T03:05:51.239Z,65.47
2018-09-16T03:06:55.471Z,64.84
2018-09-16T03:07:59.622Z,65.31
2018-09-16T03:09:05.250Z,65.62
2018-09-16T03:10:09.466Z,64.96
2018-09-16T03:11:13.631Z,65.02
2018-09-16T03:12:17.827Z,65.04
2018-09-16T03:13:22.085Z,65.67
2018-09-16T03:14:26.335Z,65.38
2018-09-16T03:15:30.499Z,65.11
2018-09-16T03:16:34.670Z,65.70
2018-09-16T03:17:38.899Z,65.76
2018-09-16T03:18:43.134Z,65.93
2018-09-16T03:19:47.254Z,65.21
2018-09-16T03:20:51.427Z,65.82
2018-09-16T03:21:55.643Z,65.80
2018-09-16T03:22:59.928Z,65.15
2018-09-16T03:24:04.306Z,65.27
2018-09-16T03:25:08.479Z,65.51
2018-09-16T03:26:12.782Z,65.59
2018-09-16T03:27:16.969Z,65.49
2018-09-16T03:28:21.158Z,65.19
2018-09-16T03:29:25.287Z,65.86
2018-09-16T03:30:29.607Z,66.00
2018-09-16T03:31:33.777Z,65.31
2018-09-16T03:32:38.082Z,65.24
2018-09-16T03:33:42.393Z,66.00
2018-09-16T03:34:46.563Z,65.39
2018-09-16T03:35:50.754Z,66.02
2018-09-16T03:36:55.136Z,65.43
2018-09-16T03:37:59.418Z,65.91
2018-09-16T03:39:04.003Z,65.71
2018-09-16T03:40:08.205Z,65.89
2018-09-16T03:41:12.418Z,66.13
2018-09-16T03:42:16.543Z,65.56
2018-09-16T03:43:20.724Z,65.47
2018-09-16T03:44:24.988Z,66.07
2018-09-16T03:45:29.138Z,65.80
2018-09-16T03:46:33.282Z,66.09
2018-09-16T03:47:37.670Z,66.24
2018-09-16T03:48:41.807Z,65.43
2018-09-16T03:49:46.230Z,65.56
2018-09-16T03:50:50.434Z,66.15
2018-09-16T03:51:54.555Z,65.44
2018-09-16T03:52:58.739Z,65.85
2018-09-16T03:54:02.914Z,65.57
2018-09-16T03:55:07.175Z,65.83
2018-09-16T03:56:11.358Z,65.54
2018-09-16T03:57:15.790Z,66.08
2018-09-16T03:58:19.959Z,66.09
2018-09-16T03:59:24.277Z,66.16
2018-09-16T04:00:28.573Z,65.59
2018-09-16T04:01:33.060Z,65.48
2018-09-16T04:02:37.360Z,65.64
2018-09-16T04:03:41.627Z,65.61
2018-09-16T04:04:45.774Z,66.25
2018-09-16T04:05:50.181Z,65.68
2018-09-16T04:06:54.384Z,65.97
2018-09-16T04:07:58.614Z,65.71
2018-09-16T04:09:02.872Z,66.30
2018-09-16T04:10:07.065Z,66.10
2018-09-16T04:11:11.516Z,65.80
2018-09-16T04:12:16.026Z,66.36
2018-09-16T04:13:20.346Z,66.40
2018-09-16T04:14:24.674Z,65.70
2018-09-16T04:15:28.949Z,66.50
2018-09-16T04:16:33.167Z,65.89
2018-09-16T04:17:37.358Z,66.47
2018-09-16T04:18:41.686Z,66.29
2018-09-16T04:19:46.013Z,66.45
2018-09-16T04:20:50.194Z,65.87
2018-09-16T04:21:54.424Z,66.35
2018-09-16T04:22:58.638Z,65.87
2018-09-16T04:24:02.798Z,65.93
2018-09-16T04:25:07.338Z,66.10
2018-09-16T04:26:11.494Z,65.98
2018-09-16T04:27:15.780Z,66.54
2018-09-16T04:28:20.015Z,66.52
2018-09-16T04:29:24.229Z,65.89
2018-09-16T04:30:28.379Z,66.56
2018-09-16T04:31:32.634Z,66.53
2018-09-16T04:32:37.319Z,66.07
2018-09-16T04:33:41.472Z,65.90
2018-09-16T04:34:45.665Z,65.84
2018-09-16T04:35:49.911Z,66.16
2018-09-16T04:36:54.092Z,65.88
2018-09-16T04:37:58.276Z,66.29
2018-09-16T04:39:02.453Z,66.38
2018-09-16T04:40:07.000Z,66.61
2018-09-16T04:41:11.150Z,66.52
2018-09-16T04:42:15.407Z,65.89
2018-09-16T04:43:19.597Z,65.97
2018-09-16T04:44:23.817Z,65.97
2018-09-16T04:45:27.951Z,65.95
2018-09-16T04:46:32.290Z,66.44
2018-09-16T04:47:36.418Z,66.07
2018-09-16T04:48:40.611Z,66.63
2018-09-16T04:49:45.060Z,66.65
2018-09-16T04:50:49.308Z,66.77
2018-09-16T04:51:53.458Z,66.71
2018-09-16T04:52:57.673Z,66.63
2018-09-16T04:54:01.847Z,66.77
2018-09-16T04:55:06.150Z,66.05
2018-09-16T04:56:10.483Z,65.94
2018-09-16T04:57:14.720Z,66.75
2018-09-16T04:58:18.897Z,66.89
2018-09-16T04:59:23.100Z,66.91
2018-09-16T05:00:27.251Z,66.24
2018-09-16T05:01:31.588Z,66.79
2018-09-16T05:02:35.820Z,66.23
2018-09-16T05:03:39.977Z,66.85
2018-09-16T05:04:44.229Z,66.89
2018-09-16T05:05:48.371Z,66.04
2018-09-16T05:06:53.078Z,66.47
2018-09-16T05:07:57.382Z,66.80
2018-09-16T05:09:01.681Z,66.82
2018-09-16T05:10:06.026Z,66.26
2018-09-16T05:11:10.172Z,66.97
2018-09-16T05:12:14.323Z,66.90
2018-09-16T05:13:18.494Z,66.15
2018-09-16T05:14:22.679Z,66.73
2018-09-16T05:15:26.950Z,66.58
2018-09-16T05:16:31.159Z,66.45
2018-09-16T05:17:35.329Z,66.09
2018-09-16T05:18:39.471Z,66.73
2018-09-16T05:19:43.691Z,66.74
2018-09-16T05:20:47.925Z,66.63
2018-09-16T05:21:52.095Z,66.77
2018-09-16T05:22:56.432Z,66.67
2018-09-16T05:24:00.598Z,66.53
2018-09-16T05:25:05.095Z,66.65
2018-09-16T05:26:09.310Z,66.51
2018-09-16T05:27:13.727Z,66.75
2018-09-16T05:28:17.869Z,66.30
2018-09-16T05:29:22.011Z,66.74
2018-09-16T05:30:26.204Z,66.20
2018-09-16T05:31:30.445Z,66.67
2018-09-16T05:32:34.727Z,66.74
2018-09-16T05:33:38.893Z,66.69
2018-09-16T05:34:43.078Z,66.68
2018-09-16T05:35:47.364Z,66.86
2018-09-16T05:36:51.556Z,66.41
2018-09-16T05:37:55.967Z,66.04
2018-09-16T05:39:00.191Z,66.14
2018-09-16T05:40:04.366Z,66.79
2018-09-16T05:41:08.707Z,66.76
2018-09-16T05:42:12.890Z,66.73
2018-09-16T05:43:17.190Z,66.76
2018-09-16T05:44:21.331Z,66.15
2018-09-16T05:45:25.534Z,66.43
2018-09-16T05:46:29.694Z,65.91
2018-09-16T05:47:33.882Z,66.50
2018-09-16T05:48:38.070Z,66.73
2018-09-16T05:49:42.234Z,66.07
2018-09-16T05:50:46.386Z,66.17
2018-09-16T05:51:50.600Z,66.62
2018-09-16T05:52:54.966Z,65.87
2018-09-16T05:53:59.301Z,66.10
2018-09-16T05:55:03.453Z,66.04
2018-09-16T05:56:07.636Z,65.80
2018-09-16T05:57:11.798Z,65.77
2018-09-16T05:58:16.022Z,66.13
2018-09-16T05:59:20.229Z,66.25
2018-09-16T06:00:27.716Z,66.06
2018-09-16T06:01:32.116Z,65.96
2018-09-16T06:02:36.262Z,65.29
2018-09-16T06:03:40.529Z,65.60
2018-09-16T06:04:45.076Z,66.03
2018-09-16T06:05:49.306Z,65.70
2018-09-16T06:06:53.482Z,65.00
2018-09-16T06:07:57.681Z,64.90
2018-09-16T06:09:02.064Z,65.44
2018-09-16T06:10:06.264Z,64.69
2018-09-16T06:11:10.427Z,65.33
2018-09-16T06:12:14.597Z,64.66
2018-09-16T06:13:18.831Z,64.53
2018-09-16T06:14:22.994Z,64.79
2018-09-16T06:15:27.137Z,64.98
2018-09-16T06:16:31.419Z,64.84
2018-09-16T06:17:35.705Z,64.31
2018-09-16T06:18:39.883Z,64.56
2018-09-16T06:19:44.115Z,64.17
2018-09-16T06:20:48.331Z,64.08
2018-09-16T06:21:52.561Z,64.12
2018-09-16T06:22:56.714Z,63.88
2018-09-16T06:24:00.936Z,63.76
2018-09-16T06:25:05.285Z,64.24
2018-09-16T06:26:09.843Z,64.35
2018-09-16T06:27:14.023Z,63.56
2018-09-16T06:28:18.177Z,64.07
2018-09-16T06:29:22.516Z,63.42
2018-09-16T06:30:26.729Z,63.88
2018-09-16T06:31:30.888Z,63.27
2018-09-16T06:32:35.059Z,63.45
2018-09-16T06:33:39.210Z,63.23
2018-09-16T06:34:43.405Z,63.13
2018-09-16T06:35:47.705Z,63.63
2018-09-16T06:36:51.922Z,63.61
2018-09-16T06:37:56.403Z,63.75
2018-09-16T06:39:00.546Z,63.62
2018-09-16T06:40:04.685Z,63.13
2018-09-16T06:41:08.944Z,63.09
2018-09-16T06:42:13.092Z,63.07
2018-09-16T06:43:17.380Z,63.11
2018-09-16T06:44:21.558Z,63.67
2018-09-16T06:45:25.708Z,63.57
2018-09-16T06:46:29.922Z,63.37
2018-09-16T06:47:34.182Z,62.81
2018-09-16T06:48:38.369Z,62.79
2018-09-16T06:49:42.496Z,62.83
2018-09-16T06:50:47.029Z,62.92
2018-09-16T06:51:51.220Z,63.13
2018-09-16T06:52:55.620Z,63.22
2018-09-16T06:53:59.910Z,63.33
2018-09-16T06:55:04.217Z,63.25
2018-09-16T06:56:08.427Z,62.89
2018-09-16T06:57:12.567Z,62.67
2018-09-16T06:58:16.739Z,62.61
2018-09-16T06:59:20.939Z,62.53
2018-09-16T07:01:35.530Z,62.96
2018-09-16T07:02:39.737Z,62.57
2018-09-16T07:03:43.920Z,62.24
2018-09-16T07:04:48.111Z,62.79
2018-09-16T07:05:52.475Z,62.44
2018-09-16T07:06:56.659Z,62.71
2018-09-16T07:08:00.860Z,62.05
2018-09-16T07:09:11.591Z,62.50
2018-09-16T07:10:15.756Z,62.55
2018-09-16T07:11:19.918Z,62.60
2018-09-16T07:12:24.102Z,62.49
2018-09-16T07:13:28.295Z,62.32
2018-09-16T07:14:32.490Z,62.63
2018-09-16T07:15:36.719Z,61.99
2018-09-16T07:16:40.903Z,62.04
2018-09-16T07:17:45.067Z,62.12
2018-09-16T07:18:49.427Z,61.99
2018-09-16T07:19:53.579Z,61.89
2018-09-16T07:20:57.776Z,61.71
2018-09-16T07:22:01.906Z,61.75
2018-09-16T07:23:06.133Z,62.25
2018-09-16T07:24:10.294Z,62.34
2018-09-16T07:25:14.463Z,61.66
2018-09-16T07:26:18.782Z,61.57
2018-09-16T07:27:23.065Z,61.96
2018-09-16T07:28:27.174Z,62.24
2018-09-16T07:29:31.376Z,61.66
2018-09-16T07:30:35.527Z,62.21
2018-09-16T07:31:39.658Z,62.19
2018-09-16T07:32:43.846Z,61.56
2018-09-16T07:33:48.174Z,61.36
2018-09-16T07:34:52.343Z,61.74
2018-09-16T07:35:56.478Z,61.31
2018-09-16T07:37:00.626Z,61.32
2018-09-16T07:38:05.398Z,61.93
2018-09-16T07:39:10.414Z,61.89
2018-09-16T07:40:14.634Z,61.34
2018-09-16T07:41:19.007Z,61.04
2018-09-16T07:42:23.703Z,61.70
2018-09-16T07:43:28.370Z,61.17
2018-09-16T07:44:32.558Z,61.35
2018-09-16T07:45:36.910Z,61.83
2018-09-16T07:46:41.227Z,61.06
2018-09-16T07:47:45.910Z,61.51
2018-09-16T07:48:50.118Z,61.03
2018-09-16T07:49:54.344Z,61.43
2018-09-16T07:50:59.025Z,61.57
2018-09-16T07:52:03.446Z,61.12
2018-09-16T07:53:08.125Z,60.80
2018-09-16T07:54:12.480Z,61.57
2018-09-16T07:55:16.702Z,60.77
2018-09-16T07:56:21.190Z,61.68
2018-09-16T07:57:26.148Z,61.01
2018-09-16T07:58:30.585Z,61.61
2018-09-16T07:59:34.805Z,61.46
2018-09-16T08:00:39.171Z,60.98
2018-09-16T08:01:43.963Z,60.79
2018-09-16T08:02:48.492Z,61.38
2018-09-16T08:03:52.645Z,61.41
2018-09-16T08:04:56.843Z,60.50
2018-09-16T08:06:01.493Z,61.03
2018-09-16T08:07:06.274Z,60.87
2018-09-16T08:08:10.724Z,60.33
2018-09-16T08:09:15.246Z,60.44
2018-09-16T08:10:19.902Z,60.92
2018-09-16T08:11:24.107Z,60.58
2018-09-16T08:12:28.754Z,60.08
2018-09-16T08:13:33.367Z,60.49
2018-09-16T08:14:37.774Z,60.52
2018-09-16T08:15:42.006Z,60.45
2018-09-16T08:16:46.279Z,60.11
2018-09-16T08:17:50.563Z,60.35
2018-09-16T08:18:54.977Z,59.99
2018-09-16T08:19:59.465Z,59.96
2018-09-16T08:21:03.955Z,59.80
2018-09-16T08:22:08.359Z,59.92
2018-09-16T08:23:12.547Z,60.18
2018-09-16T08:24:23.380Z,59.91
2018-09-16T08:25:27.699Z,60.49
2018-09-16T08:26:32.401Z,60.21
2018-09-16T08:27:36.618Z,60.59
2018-09-16T08:28:40.809Z,59.72
2018-09-16T08:29:45.130Z,59.73
2018-09-16T08:30:49.831Z,60.23
2018-09-16T08:31:54.311Z,60.36
2018-09-16T08:32:58.539Z,59.62
2018-09-16T08:34:02.991Z,60.23
2018-09-16T08:35:07.298Z,59.57
2018-09-16T08:36:11.850Z,60.24
2018-09-16T08:37:15.999Z,59.58
2018-09-16T08:38:20.677Z,59.73
2018-09-16T08:39:24.868Z,59.46
2018-09-16T08:40:29.398Z,59.36
2018-09-16T08:41:33.526Z,59.95
2018-09-16T08:42:37.745Z,59.83
2018-09-16T08:43:41.958Z,59.69
2018-09-16T08:44:46.155Z,59.66
2018-09-16T08:45:50.311Z,59.45
2018-09-16T08:46:54.468Z,59.62
2018-09-16T08:47:58.668Z,59.51
2018-09-16T08:49:02.883Z,59.09
2018-09-16T08:50:07.119Z,58.88
2018-09-16T08:51:11.473Z,59.23
2018-09-16T08:52:15.667Z,59.25
2018-09-16T08:53:19.958Z,59.14
2018-09-16T08:54:24.481Z,58.56
2018-09-16T08:55:28.730Z,59.23
2018-09-16T08:56:32.943Z,58.65
2018-09-16T08:57:37.102Z,59.10
2018-09-16T08:58:41.270Z,58.37
2018-09-16T08:59:45.424Z,58.47
2018-09-16T09:00:49.963Z,58.74
2018-09-16T09:01:54.123Z,58.89
2018-09-16T09:02:58.282Z,58.04
2018-09-16T09:04:02.435Z,58.01
2018-09-16T09:05:07.330Z,58.34
2018-09-16T09:06:11.496Z,58.32
2018-09-16T09:07:15.772Z,58.55
2018-09-16T09:08:20.172Z,58.36
2018-09-16T09:09:24.304Z,58.12
2018-09-16T09:10:28.498Z,58.01
2018-09-16T09:11:32.685Z,58.08
2018-09-16T09:12:36.842Z,58.08
2018-09-16T09:13:41.368Z,58.01
2018-09-16T09:14:45.519Z,57.56
2018-09-16T09:15:49.654Z,58.03
2018-09-16T09:16:53.858Z,57.48
2018-09-16T09:17:58.027Z,57.92
2018-09-16T09:19:02.240Z,57.32
2018-09-16T09:20:06.623Z,57.29
2018-09-16T09:21:10.778Z,57.08
2018-09-16T09:22:15.034Z,57.77
2018-09-16T09:23:19.654Z,56.96
2018-09-16T09:24:23.815Z,57.54
2018-09-16T09:25:27.986Z,57.22
2018-09-16T09:26:32.266Z,57.09
2018-09-16T09:27:36.454Z,57.24
2018-09-16T09:28:40.594Z,57.05
2018-09-16T09:29:44.966Z,56.77
2018-09-16T09:30:49.098Z,57.53
2018-09-16T09:31:53.240Z,57.42
2018-09-16T09:32:57.443Z,57.02
2018-09-16T09:34:01.597Z,57.26
2018-09-16T09:35:05.906Z,57.38
2018-09-16T09:36:10.115Z,57.45
2018-09-16T09:37:14.255Z,57.20
2018-09-16T09:38:24.662Z,56.90
2018-09-16T09:39:29.298Z,56.98
2018-09-16T09:40:33.447Z,56.36
2018-09-16T09:41:37.622Z,56.33
2018-09-16T09:42:41.805Z,55.93
2018-09-16T09:43:46.098Z,56.44
2018-09-16T09:44:50.330Z,56.12
2018-09-16T09:45:54.547Z,55.42
2018-09-16T09:46:58.760Z,55.89
2018-09-16T09:48:02.956Z,55.29
2018-09-16T09:49:07.359Z,56.00
2018-09-16T09:50:11.787Z,55.94
2018-09-16T09:51:16.060Z,56.05
2018-09-16T09:52:20.200Z,55.82
2018-09-16T09:53:24.401Z,55.39
2018-09-16T09:54:28.571Z,55.63
2018-09-16T09:55:32.714Z,55.33
2018-09-16T09:56:36.858Z,55.27
2018-09-16T09:57:41.268Z,54.83
2018-09-16T09:58:45.449Z,55.00
2018-09-16T09:59:49.672Z,54.54
2018-09-16T10:00:53.823Z,54.34
2018-09-16T10:01:58.010Z,54.58
2018-09-16T10:03:02.616Z,53.79
2018-09-16T10:04:06.965Z,54.05
2018-09-16T10:05:11.179Z,53.75
2018-09-16T10:06:15.360Z,53.76
2018-09-16T10:07:26.977Z,53.68
2018-09-16T10:08:31.227Z,53.22
2018-09-16T10:09:35.347Z,53.02
2018-09-16T10:10:39.612Z,53.08
2018-09-16T10:11:43.811Z,53.25
2018-09-16T10:12:48.108Z,53.30
2018-09-16T10:13:52.318Z,53.03
2018-09-16T10:14:56.483Z,52.46
2018-09-16T10:16:00.626Z,52.87
2018-09-16T10:17:04.766Z,52.29
2018-09-16T10:18:09.090Z,52.45
2018-09-16T10:19:13.264Z,52.66
2018-09-16T10:20:17.519Z,52.24
2018-09-16T10:21:21.727Z,52.54
2018-09-16T10:22:25.875Z,52.28
2018-09-16T10:23:30.083Z,51.86
2018-09-16T10:24:34.289Z,51.81
2018-09-16T10:25:38.975Z,51.44
2018-09-16T10:26:43.211Z,51.17
2018-09-16T10:27:47.333Z,50.80
2018-09-16T10:28:51.494Z,50.88
2018-09-16T10:29:55.624Z,50.73
2018-09-16T10:30:59.793Z,50.14
2018-09-16T10:32:03.954Z,49.80
2018-09-16T10:33:08.128Z,49.21
2018-09-16T10:34:12.266Z,49.33
2018-09-16T10:35:16.635Z,48.89
2018-09-16T10:36:20.766Z,49.33
2018-09-16T10:37:25.571Z,48.75
2018-09-16T10:38:29.795Z,48.57
2018-09-16T10:39:34.362Z,48.92
2018-09-16T10:40:38.527Z,48.55
2018-09-16T10:41:42.847Z,48.68
2018-09-16T10:42:47.083Z,48.21
2018-09-16T10:43:51.415Z,47.94
2018-09-16T10:44:55.627Z,48.64
2018-09-16T10:45:59.771Z,47.89
2018-09-16T10:47:03.934Z,48.26
2018-09-16T10:48:08.237Z,47.60
2018-09-16T10:49:12.446Z,47.79
2018-09-16T10:50:16.610Z,47.67
2018-09-16T10:51:20.802Z,47.71
2018-09-16T10:52:24.974Z,47.18
2018-09-16T10:53:29.650Z,46.86
2018-09-16T10:54:34.220Z,46.56
2018-09-16T10:55:38.495Z,46.96
2018-09-16T10:56:42.901Z,46.62
2018-09-16T10:57:47.028Z,46.96
2018-09-16T10:58:51.746Z,46.60
2018-09-16T10:59:56.146Z,46.74
2018-09-16T11:01:00.460Z,46.74
2018-09-16T11:02:04.638Z,46.11
2018-09-16T11:03:08.822Z,45.98
2018-09-16T11:04:13.067Z,46.09
2018-09-16T11:05:17.567Z,45.42
2018-09-16T11:06:21.718Z,45.23
2018-09-16T11:07:25.914Z,45.83
2018-09-16T11:08:30.132Z,45.14
2018-09-16T11:09:34.327Z,45.89
2018-09-16T11:10:38.768Z,45.13
2018-09-16T11:11:42.952Z,45.07
2018-09-16T11:12:47.218Z,45.69
2018-09-16T11:13:51.412Z,44.81
2018-09-16T11:14:55.648Z,45.14
2018-09-16T11:15:59.862Z,44.79
2018-09-16T11:17:04.326Z,45.07
2018-09-16T11:18:08.799Z,44.14
2018-09-16T11:19:12.949Z,44.56
2018-09-16T11:20:17.166Z,44.04
2018-09-16T11:21:21.302Z,43.57
2018-09-16T11:22:25.739Z,43.81
2018-09-16T11:23:29.954Z,43.33
2018-09-16T11:24:34.191Z,43.31
2018-09-16T11:25:38.386Z,43.87
2018-09-16T11:26:42.559Z,43.82
2018-09-16T11:27:46.756Z,43.04
2018-09-16T11:28:50.951Z,43.82
2018-09-16T11:29:57.370Z,43.58
2018-09-16T11:31:01.563Z,43.54
2018-09-16T11:32:06.277Z,43.42
2018-09-16T11:33:17.043Z,43.15
2018-09-16T11:34:21.213Z,43.45
2018-09-16T11:35:25.533Z,43.88
2018-09-16T11:36:29.653Z,43.43
2018-09-16T11:37:34.027Z,44.13
2018-09-16T11:38:38.178Z,43.69
2018-09-16T11:39:42.676Z,43.59
2018-09-16T11:40:46.968Z,44.04
2018-09-16T11:41:51.144Z,44.01
2018-09-16T11:42:55.348Z,43.92
2018-09-16T11:43:59.751Z,43.70
2018-09-16T11:45:03.982Z,43.06
2018-09-16T11:46:08.154Z,42.78
2018-09-16T11:47:12.522Z,43.09
2018-09-16T11:48:16.689Z,42.42
2018-09-16T11:49:20.870Z,42.15
2018-09-16T11:50:25.034Z,42.12
2018-09-16T11:51:29.372Z,42.99
2018-09-16T11:52:33.668Z,42.30
2018-09-16T11:53:38.162Z,43.10
2018-09-16T11:54:42.403Z,42.43
2018-09-16T11:55:46.664Z,42.68
2018-09-16T11:56:51.085Z,42.75
2018-09-16T11:57:55.381Z,42.49
2018-09-16T11:58:59.700Z,41.59
2018-09-16T12:00:03.934Z,42.06
2018-09-16T12:01:08.122Z,41.38
2018-09-16T12:02:12.365Z,41.91
2018-09-16T12:03:16.621Z,41.69
2018-09-16T12:04:20.774Z,41.58
2018-09-16T12:05:24.952Z,41.69
2018-09-16T12:06:29.111Z,40.77
2018-09-16T12:07:36.460Z,41.03
2018-09-16T12:08:40.734Z,41.53
2018-09-16T12:09:44.927Z,40.91
2018-09-16T12:10:49.101Z,41.44
2018-09-16T12:11:53.329Z,41.57
2018-09-16T12:12:57.533Z,40.93
2018-09-16T12:14:01.759Z,41.65
2018-09-16T12:15:06.107Z,41.10
2018-09-16T12:16:10.330Z,41.78
2018-09-16T12:17:14.527Z,41.23
2018-09-16T12:18:18.681Z,41.23
2018-09-16T12:19:23.381Z,41.70
2018-09-16T12:20:27.558Z,41.38
2018-09-16T12:21:31.797Z,41.14
2018-09-16T12:22:36.012Z,41.59
2018-09-16T12:23:40.320Z,41.40
2018-09-16T12:24:44.663Z,40.81
2018-09-16T12:25:48.811Z,41.45
2018-09-16T12:26:53.130Z,40.81
2018-09-16T12:27:57.314Z,41.28
2018-09-16T12:29:01.745Z,41.23
2018-09-16T12:30:06.143Z,40.64
2018-09-16T12:31:10.335Z,40.78
2018-09-16T12:32:14.511Z,41.28
2018-09-16T12:33:18.710Z,41.14
2018-09-16T12:34:22.975Z,41.05
2018-09-16T12:35:27.203Z,40.41
2018-09-16T12:36:31.700Z,40.58
2018-09-16T12:37:36.102Z,40.47
2018-09-16T12:38:40.337Z,40.33
2018-09-16T12:39:44.926Z,40.84
2018-09-16T12:40:49.201Z,40.41
2018-09-16T12:41:53.610Z,40.73
2018-09-16T12:42:57.948Z,40.42
2018-09-16T12:44:02.152Z,40.74
2018-09-16T12:45:06.593Z,39.84
2018-09-16T12:46:10.949Z,40.04
2018-09-16T12:47:15.130Z,39.85
2018-09-16T12:48:19.486Z,39.52
2018-09-16T12:49:23.670Z,39.37
2018-09-16T12:50:27.895Z,39.89
2018-09-16T12:51:32.060Z,39.86
2018-09-16T12:52:36.245Z,39.23
2018-09-16T12:53:40.433Z,39.37
2018-09-16T12:54:44.808Z,39.46
2018-09-16T12:55:48.975Z,39.31
2018-09-16T12:56:53.230Z,39.42
2018-09-16T12:57:57.371Z,39.65
2018-09-16T12:59:01.578Z,39.56
2018-09-16T13:00:05.790Z,38.80
2018-09-16T13:01:09.985Z,38.97
2018-09-16T13:02:14.215Z,38.89
2018-09-16T13:03:18.564Z,39.42
2018-09-16T13:04:22.766Z,39.33
2018-09-16T13:05:26.974Z,39.00
2018-09-16T13:06:31.254Z,38.82
2018-09-16T13:07:35.590Z,39.21
2018-09-16T13:08:39.920Z,39.10
2018-09-16T13:09:44.250Z,39.16
2018-09-16T13:10:48.440Z,39.46
2018-09-16T13:11:52.820Z,39.26
2018-09-16T13:12:57.330Z,38.56
2018-09-16T13:14:01.504Z,39.12
2018-09-16T13:15:05.800Z,39.12
2018-09-16T13:16:16.398Z,39.35
2018-09-16T13:17:20.596Z,38.86
2018-09-16T13:18:24.863Z,39.46
2018-09-16T13:19:29.231Z,39.02
2018-09-16T13:20:33.627Z,39.43
2018-09-16T13:21:37.766Z,38.92
2018-09-16T13:22:42.037Z,39.20
2018-09-16T13:23:46.398Z,39.49
2018-09-16T13:24:50.618Z,39.20
2018-09-16T13:25:54.791Z,39.19
2018-09-16T13:26:58.951Z,38.66
2018-09-16T13:29:06.257Z,39.07
2018-09-16T13:30:10.495Z,38.99
2018-09-16T13:32:17.766Z,39.05
2018-09-16T13:33:22.298Z,38.53
2018-09-16T13:34:26.520Z,38.60
2018-09-16T13:36:33.763Z,39.12
2018-09-16T13:37:37.968Z,38.35
2018-09-16T13:38:42.247Z,38.40
2018-09-16T13:39:46.879Z,38.57
2018-09-16T13:40:51.065Z,38.50
2018-09-16T13:41:55.250Z,38.71
2018-09-16T13:42:59.390Z,38.44
2018-09-16T13:44:03.580Z,39.29
2018-09-16T13:45:07.799Z,38.69
2018-09-16T13:46:12.020Z,38.79
2018-09-16T13:47:16.248Z,38.99
2018-09-16T13:48:20.509Z,39.66
2018-09-16T13:49:24.744Z,39.00
2018-09-16T13:50:28.986Z,38.83
2018-09-16T13:51:33.221Z,39.34
2018-09-16T13:52:37.724Z,39.21
2018-09-16T13:53:42.195Z,38.88